Time;durP1;ratioP1;P1;durP2;ratioP2;P2;SDS_P1;SDS_P2;PMS_P1;PMS_P2;Temp;Humidity;BMP_temperature;BMP_pressure;BME280_temperature;BME280_humidity;BME280_pressure;Samples;Min_cycle;Max_cycle;Signal;HPM_P1;HPM_P2
2023/03/11 00:02:20;;;;;;;2.08;0.73;;;0.50;99.90;;;;;;5019911;28;20041;-70
2023/03/11 00:04:45;;;;;;;0.70;0.60;;;0.50;99.90;;;;;;5029104;28;20039;-70
2023/03/11 00:07:11;;;;;;;8.83;1.90;;;0.50;99.90;;;;;;5034163;28;20405;-71
2023/03/11 00:09:37;;;;;;;2.33;0.60;;;0.50;99.90;;;;;;5032491;28;20112;-70
2023/03/11 00:12:04;;;;;;;1.58;0.65;;;0.50;99.90;;;;;;5032566;28;20328;-70
2023/03/11 00:14:29;;;;;;;6.35;0.60;;;0.60;99.90;;;;;;5026675;28;20033;-71
2023/03/11 00:16:55;;;;;;;7.17;0.90;;;0.70;99.90;;;;;;5033312;28;20028;-72
2023/03/11 00:19:21;;;;;;;1.57;1.10;;;0.70;99.90;;;;;;5034030;28;20030;-71
2023/03/11 00:21:47;;;;;;;6.17;0.87;;;0.70;99.90;;;;;;5031380;28;20112;-71
2023/03/11 00:24:13;;;;;;;5.40;0.60;;;0.70;99.90;;;;;;5023569;28;20270;-71
2023/03/11 00:26:39;;;;;;;6.23;0.97;;;0.70;99.90;;;;;;5033160;28;20040;-71
2023/03/11 00:29:05;;;;;;;4.83;1.70;;;0.70;99.90;;;;;;5032644;28;20028;-70
2023/03/11 00:31:30;;;;;;;1.90;0.98;;;0.70;99.90;;;;;;5023616;28;20369;-71
2023/03/11 00:33:56;;;;;;;5.83;0.70;;;0.70;99.90;;;;;;5019854;28;20033;-71
2023/03/11 00:36:35;;;;;;;4.10;0.60;;;0.70;99.90;;;;;;5029443;28;20028;-70
2023/03/11 00:39:05;;;;;;;1.75;0.43;;;0.70;99.90;;;;;;5018524;28;20329;-71
2023/03/11 00:41:32;;;;;;;1.65;0.47;;;0.70;99.90;;;;;;5024272;28;20021;-71
2023/03/11 00:43:58;;;;;;;4.15;0.55;;;0.60;99.90;;;;;;5026306;28;20022;-71
2023/03/11 00:46:25;;;;;;;8.07;0.95;;;0.60;99.90;;;;;;5024206;28;20312;-70
2023/03/11 00:48:51;;;;;;;3.42;0.98;;;0.60;99.90;;;;;;5027577;28;20052;-71
2023/03/11 00:51:17;;;;;;;4.28;0.90;;;0.50;99.90;;;;;;5031551;28;20033;-71
2023/03/11 00:53:43;;;;;;;4.75;0.63;;;0.50;99.90;;;;;;5037348;28;20091;-71
2023/03/11 00:56:11;;;;;;;2.90;0.98;;;0.50;99.90;;;;;;5025756;28;20317;-71
2023/03/11 00:58:38;;;;;;;2.03;0.52;;;0.50;99.90;;;;;;5028192;28;20060;-70
2023/03/11 01:01:08;;;;;;;1.50;0.60;;;0.50;99.90;;;;;;5027877;28;20025;-70
2023/03/11 01:03:34;;;;;;;4.40;0.50;;;0.50;99.90;;;;;;5034056;28;20056;-70
2023/03/11 01:06:00;;;;;;;5.93;0.73;;;0.50;99.90;;;;;;5030365;28;20025;-70
2023/03/11 01:08:25;;;;;;;7.73;0.50;;;0.50;99.90;;;;;;5023273;28;20034;-70
2023/03/11 01:10:52;;;;;;;6.10;0.70;;;0.50;99.90;;;;;;5025744;28;20033;-70
2023/03/11 01:13:18;;;;;;;1.35;0.35;;;0.50;99.90;;;;;;5029734;28;20018;-70
2023/03/11 01:15:44;;;;;;;3.00;0.80;;;0.40;99.90;;;;;;5029937;28;20036;-70
2023/03/11 01:18:10;;;;;;;4.47;0.50;;;0.40;99.90;;;;;;5030030;28;20111;-70
2023/03/11 01:20:37;;;;;;;1.40;0.40;;;0.30;99.90;;;;;;5027780;28;20033;-70
2023/03/11 01:23:03;;;;;;;0.65;0.30;;;0.30;99.90;;;;;;5028991;28;20029;-70
2023/03/11 01:25:29;;;;;;;6.28;0.70;;;0.20;99.90;;;;;;5020978;28;20029;-70
2023/03/11 01:27:55;;;;;;;1.97;0.50;;;0.20;99.90;;;;;;5028143;28;20050;-70
2023/03/11 01:30:23;;;;;;;4.45;0.70;;;0.20;99.90;;;;;;5018879;28;20061;-71
2023/03/11 01:32:50;;;;;;;3.83;0.60;;;0.10;99.90;;;;;;5025221;28;20029;-70
2023/03/11 01:35:17;;;;;;;;;;;0.10;99.90;;;;;;5017595;28;20026;-71
2023/03/11 01:37:43;;;;;;;2.42;0.52;;;0.10;99.90;;;;;;5019343;28;19913;-70
2023/03/11 01:40:16;;;;;;;1.55;0.40;;;0.10;99.90;;;;;;5026598;28;20030;-70
2023/03/11 01:42:42;;;;;;;3.65;0.47;;;0.10;99.90;;;;;;5022738;28;20029;-70
2023/03/11 01:45:32;;;;;;;0.73;0.53;;;0.10;99.90;;;;;;5025417;28;20312;-70
2023/03/11 01:47:57;;;;;;;4.57;0.50;;;0.00;99.90;;;;;;5026599;28;20013;-70
2023/03/11 01:50:26;;;;;;;3.07;0.73;;;0.10;99.90;;;;;;5019956;28;20076;-70
2023/03/11 01:52:52;;;;;;;2.88;0.75;;;0.00;99.90;;;;;;5023774;28;20116;-70
2023/03/11 01:55:19;;;;;;;2.22;0.90;;;0.00;99.90;;;;;;5022774;28;20029;-70
2023/03/11 01:57:46;;;;;;;1.10;0.60;;;-0.10;99.90;;;;;;5028074;28;20121;-70
2023/03/11 02:00:16;;;;;;;2.33;0.75;;;-0.10;99.90;;;;;;5021641;28;20476;-70
2023/03/11 02:02:48;;;;;;;3.90;0.65;;;-0.20;99.90;;;;;;5027869;28;20024;-70
2023/03/11 02:05:14;;;;;;;2.17;0.30;;;-0.30;99.90;;;;;;5033732;28;20053;-70
2023/03/11 02:07:40;;;;;;;0.40;0.28;;;-0.30;99.90;;;;;;5020213;28;20719;-70
2023/03/11 02:10:07;;;;;;;0.93;0.33;;;-0.40;99.90;;;;;;5024401;28;20048;-70
2023/03/11 02:12:35;;;;;;;1.52;0.30;;;-0.50;99.90;;;;;;5032944;28;20044;-70
2023/03/11 02:15:03;;;;;;;7.32;0.82;;;-0.50;99.90;;;;;;5031618;28;20064;-70
2023/03/11 02:17:30;;;;;;;5.50;0.50;;;-0.60;99.90;;;;;;5028047;28;20079;-70
2023/03/11 02:20:35;;;;;;;4.55;0.70;;;-0.60;99.90;;;;;;5032374;28;20059;-71
2023/03/11 02:23:01;;;;;;;6.97;0.57;;;-0.50;99.90;;;;;;5029912;28;20037;-70
2023/03/11 02:25:36;;;;;;;1.40;0.50;;;-0.60;99.90;;;;;;5023897;28;20025;-70
2023/03/11 02:28:06;;;;;;;7.28;0.63;;;-0.70;99.90;;;;;;5028421;28;20128;-70
2023/03/11 02:30:33;;;;;;;1.75;0.57;;;-0.70;99.90;;;;;;5033515;28;20025;-70
2023/03/11 02:32:59;;;;;;;9.20;0.88;;;-0.80;99.90;;;;;;5032724;28;20324;-70
2023/03/11 02:35:25;;;;;;;1.45;0.40;;;-0.90;99.90;;;;;;5024251;28;20417;-70
2023/03/11 02:37:52;;;;;;;4.30;0.70;;;-0.90;99.90;;;;;;5023215;28;20029;-70
2023/03/11 02:40:26;;;;;;;5.97;0.82;;;-0.90;99.90;;;;;;5033442;28;20025;-70
2023/03/11 02:43:01;;;;;;;2.05;0.43;;;-0.90;99.90;;;;;;5016835;28;20425;-70
2023/03/11 02:45:29;;;;;;;3.35;0.73;;;-0.90;99.90;;;;;;5017844;28;20025;-70
2023/03/11 02:47:57;;;;;;;3.13;0.75;;;-0.90;99.90;;;;;;5025450;28;20034;-70
2023/03/11 02:50:24;;;;;;;8.93;0.70;;;-0.90;99.90;;;;;;5030813;28;20014;-70
2023/03/11 02:52:51;;;;;;;2.15;0.57;;;-1.00;99.90;;;;;;5026124;28;20060;-70
2023/03/11 02:55:19;;;;;;;1.60;0.47;;;-1.00;99.90;;;;;;5026721;28;20018;-70
2023/03/11 02:57:46;;;;;;;2.75;0.68;;;-0.90;99.90;;;;;;5021004;28;20025;-70
2023/03/11 03:00:15;;;;;;;2.15;0.52;;;-1.00;99.90;;;;;;5024669;28;20495;-71
2023/03/11 03:02:45;;;;;;;1.30;0.57;;;-1.00;99.90;;;;;;5023232;28;20025;-71
2023/03/11 03:05:11;;;;;;;1.20;0.45;;;-0.90;99.90;;;;;;5027250;28;20033;-71
2023/03/11 03:07:38;;;;;;;0.98;0.40;;;-0.90;99.90;;;;;;5027295;28;20100;-70
2023/03/11 03:10:05;;;;;;;2.00;0.50;;;-0.90;99.90;;;;;;5022941;28;20030;-70
2023/03/11 03:12:31;;;;;;;5.38;0.63;;;-0.90;99.90;;;;;;5028272;28;20332;-70
2023/03/11 03:14:57;;;;;;;2.00;1.00;;;-0.90;99.90;;;;;;5034414;28;20025;-71
2023/03/11 03:17:23;;;;;;;1.63;0.50;;;-1.00;99.90;;;;;;5030997;28;20022;-71
2023/03/11 03:19:49;;;;;;;4.40;0.57;;;-1.00;99.90;;;;;;5015297;28;20030;-70
2023/03/11 03:22:15;;;;;;;2.60;0.77;;;-1.00;99.90;;;;;;5028970;28;20037;-71
2023/03/11 03:24:41;;;;;;;0.80;0.30;;;-1.10;99.90;;;;;;5032075;28;20079;-71
2023/03/11 03:27:07;;;;;;;3.60;0.70;;;-1.00;99.90;;;;;;5022734;28;20050;-70
2023/03/11 03:29:33;;;;;;;2.40;0.67;;;-1.10;99.90;;;;;;5018417;28;20324;-70
2023/03/11 03:31:59;;;;;;;1.27;0.30;;;-1.10;99.90;;;;;;5016143;28;20121;-70
2023/03/11 03:34:25;;;;;;;1.37;0.63;;;-1.10;99.90;;;;;;5027647;28;20025;-70
2023/03/11 03:36:50;;;;;;;1.10;0.80;;;-1.10;99.90;;;;;;5025527;28;20038;-70
2023/03/11 03:39:18;;;;;;;0.70;0.60;;;-1.10;99.90;;;;;;5029046;28;20302;-70
2023/03/11 03:41:44;;;;;;;3.90;0.63;;;-1.10;99.90;;;;;;5025767;28;20104;-70
2023/03/11 03:44:10;;;;;;;4.07;0.50;;;-1.10;99.90;;;;;;5014758;28;20286;-70
2023/03/11 03:46:37;;;;;;;3.20;0.70;;;-1.10;99.90;;;;;;5028214;28;20368;-71
2023/03/11 03:49:03;;;;;;;4.97;0.80;;;-1.10;99.90;;;;;;5023425;28;20044;-71
2023/03/11 03:51:29;;;;;;;1.80;0.52;;;-1.10;99.90;;;;;;5016893;28;20030;-70
2023/03/11 03:53:55;;;;;;;3.33;0.73;;;-1.20;99.90;;;;;;5022762;28;20328;-70
2023/03/11 03:56:21;;;;;;;3.45;0.50;;;-1.20;99.90;;;;;;5027670;28;20062;-70
2023/03/11 03:58:46;;;;;;;0.90;0.40;;;-1.20;99.90;;;;;;5026656;28;20053;-70
2023/03/11 04:01:12;;;;;;;1.87;0.60;;;-1.30;99.90;;;;;;5032233;28;20277;-70
2023/03/11 04:03:39;;;;;;;4.05;0.38;;;-1.30;99.90;;;;;;5021584;28;20026;-70
2023/03/11 04:06:20;;;;;;;1.50;0.75;;;-1.30;99.90;;;;;;5030384;28;20086;-70
2023/03/11 04:08:46;;;;;;;2.20;0.30;;;-1.30;99.90;;;;;;5018723;28;20030;-70
2023/03/11 04:11:13;;;;;;;0.40;0.40;;;-1.40;99.90;;;;;;5024047;28;20053;-70
2023/03/11 04:13:39;;;;;;;7.15;0.60;;;-1.40;99.90;;;;;;5031186;28;20467;-70
2023/03/11 04:16:06;;;;;;;2.97;0.60;;;-1.40;99.90;;;;;;5027169;28;20114;-70
2023/03/11 04:18:33;;;;;;;2.22;0.50;;;-1.40;99.90;;;;;;5021717;28;20283;-70
2023/03/11 04:20:58;;;;;;;1.23;0.60;;;-1.50;99.90;;;;;;5028479;28;20033;-70
2023/03/11 04:23:24;;;;;;;2.67;0.43;;;-1.50;99.90;;;;;;5033528;28;20103;-64
2023/03/11 04:25:50;;;;;;;1.50;0.77;;;-1.50;99.90;;;;;;5031388;28;20030;-69
2023/03/11 04:28:16;;;;;;;1.53;0.30;;;-1.50;99.90;;;;;;5018690;28;20061;-69
2023/03/11 04:30:42;;;;;;;2.03;0.97;;;-1.60;99.90;;;;;;5032169;28;20070;-69
2023/03/11 04:33:08;;;;;;;2.60;0.60;;;-1.70;99.90;;;;;;5031808;28;20274;-69
2023/03/11 04:35:36;;;;;;;0.40;0.40;;;-1.70;99.90;;;;;;5022197;28;20018;-70
2023/03/11 04:38:02;;;;;;;2.65;1.05;;;-1.70;99.90;;;;;;5013801;28;20412;-70
2023/03/11 04:40:28;;;;;;;4.20;0.40;;;-1.70;99.90;;;;;;5022190;28;20032;-69
2023/03/11 04:42:54;;;;;;;0.40;0.13;;;-1.80;99.90;;;;;;5030005;28;20108;-70
2023/03/11 04:45:20;;;;;;;2.85;0.60;;;-1.80;99.90;;;;;;5033991;28;20372;-70
2023/03/11 04:47:50;;;;;;;0.85;0.73;;;-1.90;99.90;;;;;;5021745;28;20032;-69
2023/03/11 04:50:17;;;;;;;1.50;0.65;;;-1.90;99.90;;;;;;5023836;28;20443;-69
2023/03/11 04:52:43;;;;;;;2.03;0.40;;;-1.90;99.90;;;;;;5014244;28;20029;-69
2023/03/11 04:55:09;;;;;;;1.60;0.45;;;-1.90;99.90;;;;;;5020020;28;20022;-69
2023/03/11 04:57:35;;;;;;;2.33;0.68;;;-1.80;99.90;;;;;;5025906;28;20092;-70
2023/03/11 05:00:06;;;;;;;6.70;0.77;;;-1.80;99.90;;;;;;5018825;28;20046;-64
2023/03/11 05:02:33;;;;;;;1.50;0.40;;;-1.80;99.90;;;;;;5020772;28;20032;-64
2023/03/11 05:04:59;;;;;;;2.03;0.33;;;-1.80;99.90;;;;;;5014324;28;20101;-69
2023/03/11 05:07:24;;;;;;;1.70;0.67;;;-1.80;99.90;;;;;;5018524;28;20673;-64
2023/03/11 05:09:50;;;;;;;1.50;0.40;;;-1.70;99.90;;;;;;5021826;28;20095;-64
2023/03/11 05:12:16;;;;;;;1.10;0.70;;;-1.80;99.90;;;;;;5028330;28;20035;-69
2023/03/11 05:14:42;;;;;;;6.63;0.50;;;-1.90;99.90;;;;;;5036954;28;20025;-68
2023/03/11 05:17:09;;;;;;;2.50;0.70;;;-2.00;99.90;;;;;;5035871;28;20034;-69
2023/03/11 05:19:35;;;;;;;5.78;1.13;;;-2.10;99.90;;;;;;5023799;28;20412;-69
2023/03/11 05:22:01;;;;;;;1.00;0.60;;;-2.10;99.90;;;;;;5037267;28;20029;-69
2023/03/11 05:24:27;;;;;;;;;;;-2.20;99.90;;;;;;5032022;28;20071;-64
2023/03/11 05:26:53;;;;;;;1.48;0.70;;;-2.30;99.90;;;;;;5028341;28;19905;-64
2023/03/11 05:29:20;;;;;;;1.45;0.85;;;-2.40;99.90;;;;;;5036808;28;20024;-69
2023/03/11 05:31:46;;;;;;;1.08;0.57;;;-2.40;99.90;;;;;;5035927;28;20040;-69
2023/03/11 05:34:13;;;;;;;3.03;1.15;;;-2.40;99.90;;;;;;5034510;28;20356;-70
2023/03/11 05:36:38;;;;;;;5.90;0.77;;;-2.40;99.90;;;;;;5037020;28;20029;-70
2023/03/11 05:39:04;;;;;;;1.17;0.93;;;-2.50;99.90;;;;;;5035958;28;20025;-69
2023/03/11 05:41:30;;;;;;;7.00;0.65;;;-2.50;99.90;;;;;;5029548;28;20041;-69
2023/03/11 05:43:56;;;;;;;1.27;1.10;;;-2.50;99.90;;;;;;5032609;28;20030;-69
2023/03/11 05:46:22;;;;;;;3.28;1.08;;;-2.50;99.90;;;;;;5034607;28;20388;-70
2023/03/11 05:48:48;;;;;;;1.00;0.70;;;-2.40;99.90;;;;;;5036417;28;20026;-69
2023/03/11 05:51:14;;;;;;;2.93;1.30;;;-2.50;99.90;;;;;;5036348;28;20075;-70
2023/03/11 05:53:47;;;;;;;3.38;0.90;;;-2.50;99.90;;;;;;5036673;28;20101;-70
2023/03/11 05:56:14;;;;;;;5.03;1.30;;;-2.50;99.90;;;;;;5035971;28;20506;-63
2023/03/11 05:58:40;;;;;;;3.13;1.13;;;-2.60;99.90;;;;;;5035173;28;20108;-70
2023/03/11 06:01:10;;;;;;;3.83;1.00;;;-2.60;99.90;;;;;;5020913;28;20120;-70
2023/03/11 06:03:37;;;;;;;5.20;1.27;;;-2.70;99.90;;;;;;5034895;28;20424;-70
2023/03/11 06:06:05;;;;;;;8.40;1.33;;;-2.60;99.90;;;;;;5033199;28;20060;-70
2023/03/11 06:08:33;;;;;;;4.63;1.27;;;-2.60;99.90;;;;;;5033324;28;20033;-64
2023/03/11 06:11:04;;;;;;;9.77;2.53;;;-2.60;99.90;;;;;;5029342;28;20060;-70
2023/03/11 06:13:30;;;;;;;1.23;1.00;;;-2.60;99.90;;;;;;5027684;28;20030;-70
2023/03/11 06:15:55;;;;;;;9.23;1.80;;;-2.50;99.90;;;;;;5032227;28;20125;-70
2023/03/11 06:18:21;;;;;;;3.37;0.90;;;-2.40;99.90;;;;;;5032742;28;20034;-70
2023/03/11 06:20:47;;;;;;;5.00;1.33;;;-2.30;99.90;;;;;;5027090;28;20072;-70
2023/03/11 06:23:13;;;;;;;6.40;1.30;;;-2.30;99.90;;;;;;5023845;28;20076;-70
2023/03/11 06:25:39;;;;;;;4.30;1.13;;;-2.40;99.90;;;;;;5026516;28;20026;-70
2023/03/11 06:28:05;;;;;;;3.93;1.10;;;-2.30;99.90;;;;;;5024053;28;20038;-70
2023/03/11 06:30:31;;;;;;;4.03;1.13;;;-2.20;99.90;;;;;;5022759;28;20104;-72
2023/03/11 06:32:56;;;;;;;3.03;1.20;;;-2.20;99.90;;;;;;5031517;28;20500;-70
2023/03/11 06:35:22;;;;;;;4.10;1.97;;;-2.20;99.90;;;;;;5028775;28;20022;-70
2023/03/11 06:37:48;;;;;;;8.73;1.43;;;-2.20;99.90;;;;;;5018895;28;20076;-70
2023/03/11 06:40:14;;;;;;;13.30;1.77;;;-2.20;99.90;;;;;;5029405;28;20487;-70
2023/03/11 06:42:40;;;;;;;2.53;1.10;;;-2.10;99.90;;;;;;5025375;28;20346;-64
2023/03/11 06:45:06;;;;;;;5.57;1.42;;;-2.00;99.90;;;;;;5022623;28;20033;-70
2023/03/11 06:47:32;;;;;;;3.00;1.15;;;-1.90;99.90;;;;;;5028670;28;20116;-70
2023/03/11 06:49:58;;;;;;;5.50;1.50;;;-1.90;99.90;;;;;;5033126;28;20120;-70
2023/03/11 06:52:23;;;;;;;1.23;0.70;;;-1.80;99.90;;;;;;5034390;28;20022;-70
2023/03/11 06:54:49;;;;;;;2.17;0.80;;;-1.80;99.90;;;;;;5015920;28;20156;-64
2023/03/11 06:57:16;;;;;;;6.10;0.90;;;-1.80;99.90;;;;;;5019791;28;20026;-70
2023/03/11 06:59:41;;;;;;;1.38;1.00;;;-1.70;99.90;;;;;;5022202;28;20036;-64
2023/03/11 07:02:13;;;;;;;4.67;1.03;;;-1.50;99.90;;;;;;5031821;28;20029;-64
2023/03/11 07:04:38;;;;;;;1.67;1.05;;;-1.30;99.90;;;;;;5025603;28;20033;-69
2023/03/11 07:07:04;;;;;;;2.93;1.20;;;-1.10;99.90;;;;;;5035461;28;20025;-70
2023/03/11 07:09:30;;;;;;;5.20;1.10;;;-0.90;99.90;;;;;;5033089;28;20038;-70
2023/03/11 07:11:56;;;;;;;4.53;0.90;;;-0.50;99.90;;;;;;5035526;28;20041;-70
2023/03/11 07:14:22;;;;;;;17.90;5.67;;;0.20;99.90;;;;;;5034905;28;20709;-70
2023/03/11 07:16:47;;;;;;;7.70;2.77;;;1.30;99.90;;;;;;5035392;28;20029;-70
2023/03/11 07:19:13;;;;;;;8.80;2.47;;;2.50;99.90;;;;;;5034585;28;20111;-70
2023/03/11 07:21:39;;;;;;;3.93;1.80;;;3.80;99.90;;;;;;5026594;28;20030;-64
2023/03/11 07:24:05;;;;;;;7.23;1.10;;;5.10;99.90;;;;;;5018146;28;20325;-70
2023/03/11 07:26:33;;;;;;;5.70;1.65;;;6.00;99.90;;;;;;5018941;28;20092;-70
2023/03/11 07:28:59;;;;;;;6.57;0.90;;;6.60;99.90;;;;;;5030658;28;20069;-65
2023/03/11 07:31:28;;;;;;;5.55;1.13;;;7.10;99.90;;;;;;5004986;28;20709;-65
2023/03/11 07:33:55;;;;;;;3.65;1.50;;;7.90;99.90;;;;;;5012355;28;20033;-70
2023/03/11 07:36:23;;;;;;;2.67;0.98;;;8.40;99.90;;;;;;5016395;28;20061;-70
2023/03/11 07:38:57;;;;;;;3.65;0.68;;;8.80;99.90;;;;;;5019595;28;20036;-65
2023/03/11 07:41:23;;;;;;;3.67;1.02;;;9.30;99.90;;;;;;5027649;28;20088;-70
2023/03/11 07:43:49;;;;;;;3.73;0.93;;;9.70;99.90;;;;;;5030067;28;20050;-70
2023/03/11 07:46:17;;;;;;;7.17;1.60;;;10.10;99.90;;;;;;5032395;28;20286;-70
2023/03/11 07:48:43;;;;;;;5.55;1.52;;;10.50;99.90;;;;;;5025424;28;20076;-70
2023/03/11 07:51:15;;;;;;;5.53;1.58;;;10.70;99.90;;;;;;5030623;28;20083;-70
2023/03/11 07:53:41;;;;;;;3.53;0.80;;;11.10;99.90;;;;;;5025504;28;20038;-70
2023/03/11 07:56:09;;;;;;;10.90;0.93;;;11.30;99.90;;;;;;5021916;28;20029;-70
2023/03/11 07:58:35;;;;;;;5.80;1.27;;;11.20;99.90;;;;;;5017853;28;20045;-71
2023/03/11 08:01:15;;;;;;;5.00;1.25;;;11.30;99.90;;;;;;5022531;28;20069;-71
2023/03/11 08:03:42;;;;;;;5.88;1.00;;;11.60;99.90;;;;;;5030725;28;20041;-71
2023/03/11 08:06:19;;;;;;;2.75;0.85;;;11.80;99.90;;;;;;5033503;28;20044;-71
2023/03/11 08:08:47;;;;;;;2.28;1.10;;;11.90;99.90;;;;;;5028033;28;20140;-71
2023/03/11 08:11:13;;;;;;;3.85;1.23;;;11.70;99.90;;;;;;5030125;28;20017;-71
2023/03/11 08:13:40;;;;;;;2.17;1.17;;;11.70;99.90;;;;;;5024644;28;20026;-66
2023/03/11 08:16:06;;;;;;;;;;;11.70;99.90;;;;;;5030050;28;20416;-71
2023/03/11 08:18:33;;;;;;;2.72;1.02;;;11.80;99.90;;;;;;5026280;28;19955;-71
2023/03/11 08:21:07;;;;;;;3.03;1.02;;;12.20;99.90;;;;;;5027171;28;20026;-71
2023/03/11 08:23:33;;;;;;;4.22;1.33;;;12.50;99.90;;;;;;5031344;28;20030;-71
2023/03/11 08:26:07;;;;;;;4.47;1.65;;;12.60;99.90;;;;;;5019519;28;20412;-73
2023/03/11 08:28:33;;;;;;;4.70;1.58;;;12.80;99.90;;;;;;5024362;28;20053;-71
2023/03/11 08:30:59;;;;;;;2.83;1.20;;;13.10;99.90;;;;;;5022615;28;20029;-66
2023/03/11 08:33:25;;;;;;;3.00;1.10;;;13.20;99.90;;;;;;5035505;28;20033;-66
2023/03/11 08:35:53;;;;;;;2.42;1.20;;;12.90;99.90;;;;;;5013996;28;20417;-67
2023/03/11 08:38:19;;;;;;;1.85;1.13;;;12.70;99.90;;;;;;5026458;28;20036;-67
2023/03/11 08:40:44;;;;;;;4.20;1.25;;;12.30;99.90;;;;;;5034382;28;20034;-66
2023/03/11 08:43:14;;;;;;;4.77;1.20;;;12.00;99.90;;;;;;5016329;28;20329;-71
2023/03/11 08:45:41;;;;;;;4.22;0.88;;;12.00;99.90;;;;;;5022925;28;20034;-71
2023/03/11 08:48:09;;;;;;;5.00;1.20;;;11.80;99.90;;;;;;5017155;28;20033;-68
2023/03/11 08:50:35;;;;;;;3.78;1.00;;;11.60;99.90;;;;;;5017915;28;20132;-70
2023/03/11 08:53:02;;;;;;;6.33;1.77;;;11.50;99.90;;;;;;5019139;28;20404;-71
2023/03/11 08:55:28;;;;;;;4.88;1.70;;;11.80;99.90;;;;;;5021790;28;20682;-70
2023/03/11 08:57:55;;;;;;;4.28;1.60;;;11.60;99.90;;;;;;5025143;28;20022;-70
2023/03/11 09:00:21;;;;;;;6.95;1.60;;;11.40;99.90;;;;;;5019106;28;20034;-70
2023/03/11 09:02:48;;;;;;;7.43;1.23;;;11.70;99.90;;;;;;5024911;28;20032;-70
2023/03/11 09:05:14;;;;;;;4.47;1.40;;;11.30;99.90;;;;;;5019968;28;20022;-70
2023/03/11 09:07:40;;;;;;;6.15;1.33;;;10.80;99.90;;;;;;5022630;28;20338;-69
2023/03/11 09:10:07;;;;;;;12.43;1.23;;;10.50;99.90;;;;;;5021242;28;20026;-70
2023/03/11 09:12:32;;;;;;;;;;;10.10;99.90;;;;;;5025436;28;20117;-70
2023/03/11 09:14:58;;;;;;;2.40;1.17;;;9.60;99.90;;;;;;5021896;28;20000;-70
2023/03/11 09:17:25;;;;;;;3.43;1.47;;;9.40;99.90;;;;;;5019422;28;20026;-71
2023/03/11 09:19:50;;;;;;;7.45;1.13;;;9.50;99.90;;;;;;5017923;28;20029;-71
2023/03/11 09:22:16;;;;;;;10.47;1.60;;;9.50;99.90;;;;;;5018644;28;20059;-71
2023/03/11 09:24:42;;;;;;;16.90;1.83;;;9.50;99.90;;;;;;5031871;28;20044;-68
2023/03/11 09:27:09;;;;;;;7.10;1.43;;;8.80;99.90;;;;;;5022179;28;20084;-70
2023/03/11 09:29:35;;;;;;;4.22;1.52;;;8.80;99.90;;;;;;5026258;28;20036;-71
2023/03/11 09:32:01;;;;;;;14.73;1.53;;;8.30;99.90;;;;;;5019637;28;20117;-67
2023/03/11 09:34:27;;;;;;;4.77;0.90;;;8.10;99.90;;;;;;5017563;28;20044;-70
2023/03/11 09:36:52;;;;;;;5.40;0.73;;;8.10;99.90;;;;;;5019874;28;20057;-70
2023/03/11 09:39:18;;;;;;;2.43;1.07;;;8.80;99.90;;;;;;5021685;28;20097;-71
2023/03/11 09:41:49;;;;;;;5.47;1.40;;;9.40;99.90;;;;;;5019005;28;20030;-68
2023/03/11 09:44:17;;;;;;;5.30;1.15;;;9.60;99.90;;;;;;5021172;28;20049;-71
2023/03/11 09:47:20;;;;;;;3.40;0.75;;;10.00;99.90;;;;;;5018817;28;20026;-71
2023/03/11 09:50:17;;;;;;;1.55;0.82;;;10.00;99.90;;;;;;5018670;28;20032;-71
2023/03/11 09:52:45;;;;;;;5.80;0.60;;;10.10;99.90;;;;;;5014415;28;20133;-68
2023/03/11 09:55:23;;;;;;;8.45;1.05;;;10.20;99.90;;;;;;5017370;28;20092;-71
2023/03/11 09:57:49;;;;;;;1.27;0.50;;;10.20;99.90;;;;;;5018176;28;20044;-68
2023/03/11 10:00:19;;;;;;;6.72;0.90;;;10.30;99.90;;;;;;5017378;28;20101;-71
2023/03/11 10:02:45;;;;;;;9.82;0.88;;;10.00;99.90;;;;;;5032526;28;20105;-69
2023/03/11 10:05:24;;;;;;;2.17;0.90;;;9.40;99.90;;;;;;5034497;28;20064;-69
2023/03/11 10:08:09;;;;;;;6.78;0.80;;;9.10;99.90;;;;;;5036004;28;20022;-68
2023/03/11 10:10:42;;;;;;;9.27;0.82;;;8.90;99.90;;;;;;5025754;28;20040;-71
2023/03/11 10:13:39;;;;;;;2.05;0.93;;;8.60;99.90;;;;;;5019484;28;20018;-71
2023/03/11 10:16:13;;;;;;;8.63;1.00;;;8.70;99.90;;;;;;5021149;28;20029;-73
2023/03/11 10:18:56;;;;;;;7.15;1.25;;;8.40;99.90;;;;;;5023482;28;20452;-68
2023/03/11 10:21:28;;;;;;;2.80;0.88;;;8.10;99.90;;;;;;5020583;28;20432;-68
2023/03/11 10:24:32;;;;;;;6.35;0.82;;;7.90;99.90;;;;;;5025695;28;20026;-72
2023/03/11 10:27:21;;;;;;;5.28;0.85;;;8.00;99.90;;;;;;5029892;28;20380;-68
2023/03/11 10:30:13;;;;;;;4.85;1.35;;;7.60;99.90;;;;;;5024164;28;20100;-68
2023/03/11 10:32:58;;;;;;;3.90;1.00;;;7.50;99.90;;;;;;5027069;28;20030;-68
2023/03/11 10:35:41;;;;;;;14.23;1.73;;;7.60;99.90;;;;;;5027184;28;20066;-71
2023/03/11 10:38:31;;;;;;;8.30;1.00;;;7.70;99.90;;;;;;5023824;28;20033;-68
2023/03/11 10:41:01;;;;;;;4.90;0.95;;;7.90;99.90;;;;;;5019446;28;20042;-69
2023/03/11 10:43:40;;;;;;;3.05;0.93;;;8.00;99.90;;;;;;5019956;28;20326;-68
2023/03/11 10:46:17;;;;;;;2.15;0.68;;;8.00;99.90;;;;;;5017749;28;20022;-72
2023/03/11 10:48:43;;;;;;;2.83;1.00;;;8.20;99.90;;;;;;5028772;28;20064;-68
2023/03/11 10:51:16;;;;;;;8.77;1.13;;;8.20;99.90;;;;;;5027394;28;20053;-68
2023/03/11 10:53:48;;;;;;;8.25;1.15;;;8.20;99.90;;;;;;5021985;28;20025;-69
2023/03/11 10:56:38;;;;;;;7.18;1.17;;;8.10;99.90;;;;;;5034866;28;20022;-68
2023/03/11 10:59:26;;;;;;;12.50;1.33;;;8.20;99.90;;;;;;5020753;28;20036;-69
2023/03/11 11:02:16;;;;;;;6.90;0.90;;;8.50;99.90;;;;;;5003585;28;20156;-69
2023/03/11 11:04:42;;;;;;;2.75;0.77;;;8.60;99.90;;;;;;5032162;28;20129;-68
2023/03/11 11:07:30;;;;;;;4.93;0.87;;;8.60;99.90;;;;;;5032548;28;20395;-69
2023/03/11 11:10:20;;;;;;;2.70;0.80;;;8.70;99.90;;;;;;5031956;28;20516;-71
2023/03/11 11:12:53;;;;;;;4.78;1.17;;;8.80;99.90;;;;;;5029265;28;20025;-73
2023/03/11 11:15:33;;;;;;;6.90;0.70;;;9.10;99.90;;;;;;5025593;28;20026;-66
2023/03/11 11:18:02;;;;;;;7.25;0.70;;;9.00;99.90;;;;;;5029641;28;20033;-66
2023/03/11 11:20:30;;;;;;;4.32;0.70;;;9.00;99.90;;;;;;5024065;28;20028;-66
2023/03/11 11:22:58;;;;;;;3.40;0.90;;;9.10;99.90;;;;;;5028771;28;20516;-66
2023/03/11 11:25:25;;;;;;;5.03;0.93;;;9.00;99.90;;;;;;5017890;28;20025;-66
2023/03/11 11:27:55;;;;;;;;;;;9.00;99.90;;;;;;5017428;28;20049;-66
2023/03/11 11:30:22;;;;;;;4.35;0.85;;;9.00;99.90;;;;;;5015589;28;20260;-66
2023/03/11 11:32:48;;;;;;;8.63;1.30;;;8.90;99.90;;;;;;5024855;28;20057;-66
2023/03/11 11:35:18;;;;;;;7.38;1.27;;;8.70;99.90;;;;;;5033113;28;20340;-66
2023/03/11 11:37:54;;;;;;;6.35;1.33;;;8.70;99.90;;;;;;5024671;28;20091;-66
2023/03/11 11:40:29;;;;;;;3.17;1.13;;;8.50;99.90;;;;;;5021851;28;20321;-66
2023/03/11 11:43:11;;;;;;;5.15;0.88;;;8.60;99.90;;;;;;5020075;28;20033;-66
2023/03/11 11:45:44;;;;;;;4.20;1.25;;;8.50;99.90;;;;;;5023674;28;20103;-66
2023/03/11 11:48:25;;;;;;;1.98;1.00;;;8.80;99.90;;;;;;5016283;28;20033;-66
2023/03/11 11:50:56;;;;;;;5.28;1.10;;;8.80;99.90;;;;;;5027654;28;20029;-66
2023/03/11 11:53:48;;;;;;;2.33;0.65;;;8.70;99.90;;;;;;5030278;28;20037;-67
2023/03/11 11:56:14;;;;;;;2.58;0.75;;;8.70;99.90;;;;;;5031687;28;20037;-66
2023/03/11 11:58:40;;;;;;;2.83;0.60;;;8.70;99.90;;;;;;5020303;28;20022;-73
2023/03/11 12:01:20;;;;;;;3.57;1.00;;;9.00;99.90;;;;;;5035204;28;20033;-66
2023/03/11 12:04:05;;;;;;;11.30;1.10;;;9.20;99.90;;;;;;5026945;28;20102;-66
2023/03/11 12:07:06;;;;;;;2.20;0.80;;;9.30;99.90;;;;;;5032223;28;20044;-66
2023/03/11 12:09:39;;;;;;;2.03;0.85;;;9.30;99.90;;;;;;5021515;28;20061;-66
2023/03/11 12:12:15;;;;;;;13.07;1.30;;;9.10;99.90;;;;;;5022137;28;20033;-66
2023/03/11 12:15:06;;;;;;;3.70;1.42;;;9.20;99.90;;;;;;5030893;28;20037;-68
2023/03/11 12:17:35;;;;;;;4.57;0.73;;;9.30;99.90;;;;;;5029545;28;20435;-67
2023/03/11 12:20:14;;;;;;;1.05;0.77;;;9.20;99.90;;;;;;5030309;28;20417;-67
2023/03/11 12:23:04;;;;;;;5.60;1.42;;;9.30;99.90;;;;;;5033240;28;20036;-66
2023/03/11 12:25:36;;;;;;;8.15;1.10;;;9.30;99.90;;;;;;5031066;28;20029;-67
2023/03/11 12:28:27;;;;;;;16.73;1.30;;;9.30;99.90;;;;;;5033831;28;20124;-66
2023/03/11 12:30:57;;;;;;;15.68;1.20;;;9.60;99.90;;;;;;5009191;28;20040;-66
2023/03/11 12:33:37;;;;;;;3.10;0.80;;;9.70;99.90;;;;;;5029478;28;20030;-66
2023/03/11 12:36:05;;;;;;;4.50;0.82;;;9.60;99.90;;;;;;5034133;28;20033;-67
2023/03/11 12:38:39;;;;;;;5.10;0.77;;;9.50;99.90;;;;;;5034504;28;20040;-66
2023/03/11 12:41:32;;;;;;;4.93;0.93;;;9.50;99.90;;;;;;5030730;28;20022;-66
2023/03/11 12:44:03;;;;;;;7.55;0.88;;;9.30;99.90;;;;;;5022765;28;20030;-73
2023/03/11 12:46:57;;;;;;;5.75;1.17;;;9.30;99.90;;;;;;5036305;28;20030;-66
2023/03/11 12:49:37;;;;;;;6.18;1.05;;;9.40;99.90;;;;;;5020020;28;20026;-66
2023/03/11 12:52:07;;;;;;;2.40;0.88;;;9.40;99.90;;;;;;5016759;28;20022;-66
2023/03/11 12:54:44;;;;;;;4.38;0.70;;;9.40;99.90;;;;;;5023266;28;20101;-65
2023/03/11 12:57:19;;;;;;;3.95;1.02;;;9.30;99.90;;;;;;5023486;28;20109;-72
2023/03/11 13:00:16;;;;;;;3.33;1.20;;;9.30;99.90;;;;;;5027659;28;20047;-65
2023/03/11 13:03:04;;;;;;;7.18;1.38;;;9.40;99.90;;;;;;5024167;28;20108;-71
2023/03/11 13:05:58;;;;;;;2.67;1.05;;;9.30;99.90;;;;;;5026468;28;20026;-65
2023/03/11 13:08:59;;;;;;;7.88;0.85;;;9.40;99.90;;;;;;5026911;28;20013;-65